Time;durP1;ratioP1;P1;durP2;ratioP2;P2;SDS_P1;SDS_P2;PMS_P1;PMS_P2;Temp;Humidity;BMP_temperature;BMP_pressure;BME280_temperature;BME280_humidity;BME280_pressure;Samples;Min_cycle;Max_cycle;Signal;HPM_P1;HPM_P2
2022/08/04 00:00:06;;;;;;;3.10;2.77;;;29.30;48.20;;;29.55;34.71;98418.50;5040054;27;123718;-72
2022/08/04 00:03:07;;;;;;;3.90;2.07;;;29.20;48.20;;;29.49;34.36;98404.81;5029423;27;113453;-73
2022/08/04 00:06:07;;;;;;;2.90;2.33;;;29.20;48.20;;;29.43;34.47;98406.63;5039594;27;113219;-73
2022/08/04 00:08:57;;;;;;;4.80;2.93;;;29.10;48.20;;;29.38;34.49;98404.31;5038539;27;123216;-72
2022/08/04 00:11:29;;;;;;;4.37;2.20;;;29.10;48.40;;;29.36;34.75;98406.81;5040613;27;123754;-72
2022/08/04 00:14:05;;;;;;;2.80;2.40;;;29.00;48.50;;;29.33;34.54;98410.56;5026798;27;115258;-71
2022/08/04 00:16:38;;;;;;;2.83;2.30;;;29.00;48.50;;;29.30;34.84;98402.91;5030994;27;115154;-72
2022/08/04 00:19:45;;;;;;;4.13;2.40;;;29.00;48.60;;;29.23;34.78;98403.09;5038265;27;124344;-71
2022/08/04 00:22:15;;;;;;;3.73;2.33;;;28.90;48.60;;;29.22;34.64;98410.06;5036372;27;123195;-72
2022/08/04 00:24:43;;;;;;;2.90;2.27;;;28.90;48.60;;;29.21;34.91;98405.63;5030627;27;114308;-72
2022/08/04 00:27:11;;;;;;;3.20;1.90;;;28.80;48.60;;;29.17;35.04;98404.91;5034166;27;113859;-71
2022/08/04 00:29:39;;;;;;;4.67;2.47;;;28.80;48.60;;;29.13;35.11;98407.88;5035579;27;123081;-72
2022/08/04 00:32:07;;;;;;;3.30;2.00;;;28.80;48.80;;;29.10;34.97;98403.06;5025480;27;123961;-71
2022/08/04 00:34:35;;;;;;;2.60;2.20;;;28.80;48.90;;;29.08;35.03;98404.75;5012916;27;113668;-71
2022/08/04 00:37:05;;;;;;;2.33;2.00;;;28.70;49.00;;;29.05;35.20;98406.47;5026920;27;113622;-71
2022/08/04 00:39:32;;;;;;;4.17;2.20;;;28.70;49.20;;;29.03;35.30;98406.84;5039000;27;124184;-71
2022/08/04 00:42:42;;;;;;;5.60;2.40;;;28.70;49.30;;;28.98;35.34;98409.44;5037732;27;124825;-71
2022/08/04 00:45:40;;;;;;;6.20;2.37;;;28.60;49.40;;;28.95;35.62;98410.34;5046376;27;114410;-71
2022/08/04 00:48:53;;;;;;;3.07;2.20;;;28.60;49.70;;;28.90;35.68;98413.72;5041395;27;113344;-71
2022/08/04 00:51:47;;;;;;;2.40;2.07;;;28.60;49.90;;;28.85;35.78;98415.06;5038824;27;124833;-71
2022/08/04 00:54:22;;;;;;;2.63;2.30;;;28.50;50.00;;;28.84;35.80;98411.41;5031146;27;123916;-71
2022/08/04 00:57:07;;;;;;;3.37;2.47;;;28.50;50.20;;;28.82;35.88;98407.44;5045557;27;113630;-71
2022/08/04 01:00:10;;;;;;;3.07;2.17;;;28.50;50.30;;;28.77;36.07;98414.44;5043269;27;113884;-71
2022/08/04 01:03:09;;;;;;;2.40;2.10;;;28.50;50.40;;;28.74;36.02;98411.69;5030902;27;123939;-71
2022/08/04 01:06:29;;;;;;;3.43;1.90;;;28.40;50.40;;;28.69;36.17;98413.03;5038213;27;124382;-71
2022/08/04 01:09:09;;;;;;;3.10;2.10;;;28.40;50.50;;;28.68;36.17;98419.16;5041919;27;115250;-70
2022/08/04 01:12:19;;;;;;;4.40;2.57;;;28.30;50.60;;;28.63;36.34;98418.44;5048713;27;114500;-71
2022/08/04 01:15:04;;;;;;;3.60;2.50;;;28.30;50.80;;;28.60;36.30;98407.16;5036413;27;124693;-71
2022/08/04 01:17:47;;;;;;;5.63;2.20;;;28.30;50.70;;;28.58;36.08;98410.44;5047251;27;123837;-71
2022/08/04 01:20:24;;;;;;;2.80;1.97;;;28.20;50.80;;;28.56;36.50;98417.81;5054994;27;113103;-71
2022/08/04 01:23:46;;;;;;;2.40;2.17;;;28.20;50.80;;;28.49;36.43;98421.66;5050759;27;113092;-71
2022/08/04 01:26:52;;;;;;;3.60;2.10;;;28.20;50.90;;;28.44;36.32;98410.81;5029389;28;123601;-71
2022/08/04 01:29:23;;;;;;;2.63;2.13;;;28.20;51.00;;;28.44;36.74;98416.50;5042408;27;123834;-71
2022/08/04 01:32:32;;;;;;;3.37;2.27;;;28.10;51.20;;;28.41;36.59;98405.97;5052167;27;114213;-71
2022/08/04 01:35:09;;;;;;;2.80;2.03;;;28.10;51.30;;;28.39;36.65;98408.47;5052229;27;114082;-71
2022/08/04 01:37:59;;;;;;;2.80;1.73;;;28.00;51.20;;;28.37;36.52;98399.56;5042671;27;124850;-71
2022/08/04 01:40:27;;;;;;;2.67;2.00;;;28.00;51.40;;;28.35;36.99;98402.06;5029276;27;122453;-71
2022/08/04 01:42:54;;;;;;;3.03;1.90;;;28.00;51.50;;;28.35;36.83;98402.06;5035888;27;114707;-71
2022/08/04 01:45:24;;;;;;;2.60;2.13;;;28.00;51.60;;;28.32;36.93;98408.66;5035709;27;114008;-71
2022/08/04 01:47:56;;;;;;;2.77;2.17;;;27.90;51.60;;;28.29;37.11;98404.66;5047892;27;124467;-71
2022/08/04 01:50:26;;;;;;;2.00;1.80;;;27.90;51.70;;;28.28;37.23;98405.06;5042921;27;123733;-71
2022/08/04 01:52:54;;;;;;;4.20;2.20;;;27.90;51.80;;;28.24;37.41;98404.34;5054545;27;114412;-71
2022/08/04 01:55:22;;;;;;;2.37;1.70;;;27.90;52.10;;;28.22;37.34;98409.69;5056162;27;113518;-71
2022/08/04 01:57:51;;;;;;;2.97;2.40;;;27.80;52.20;;;28.21;37.38;98397.53;5047504;27;124128;-71
2022/08/04 02:00:26;;;;;;;3.43;2.10;;;27.80;52.30;;;28.19;37.53;98406.50;5032899;27;123903;-71
2022/08/04 02:02:54;;;;;;;3.37;2.17;;;27.80;52.40;;;28.17;37.49;98399.66;5017162;28;114083;-71
2022/08/04 02:05:25;;;;;;;8.77;2.60;;;27.80;52.50;;;28.13;37.44;98402.59;5050568;27;115442;-71
2022/08/04 02:08:26;;;;;;;5.43;2.93;;;27.80;52.60;;;28.08;37.84;98400.25;5038592;27;124466;-70
2022/08/04 02:11:20;;;;;;;2.80;2.03;;;27.70;52.80;;;28.07;37.92;98407.16;5041757;27;123829;-71
2022/08/04 02:14:40;;;;;;;4.27;2.70;;;27.70;52.90;;;28.00;37.99;98410.19;5053015;27;114216;-71
2022/08/04 02:17:12;;;;;;;3.57;2.33;;;27.70;53.00;;;27.99;37.93;98397.22;5044428;27;114067;-71
2022/08/04 02:19:56;;;;;;;3.43;2.03;;;27.60;53.00;;;27.98;37.97;98395.63;5045786;27;125022;-71
2022/08/04 02:22:26;;;;;;;3.70;2.33;;;27.60;53.20;;;27.95;37.88;98391.63;5050125;27;123789;-71
2022/08/04 02:25:05;;;;;;;3.30;2.13;;;27.60;53.10;;;27.94;37.94;98395.72;5049213;27;114275;-71
2022/08/04 02:28:05;;;;;;;5.43;2.70;;;27.60;53.10;;;27.91;38.00;98395.75;5047736;27;113942;-71
2022/08/04 02:30:51;;;;;;;2.37;1.90;;;27.60;53.20;;;27.86;38.04;98384.94;5035329;27;124489;-71
2022/08/04 02:33:27;;;;;;;2.27;1.80;;;27.50;53.30;;;27.86;37.93;98394.28;5046447;27;122985;-71
2022/08/04 02:36:00;;;;;;;4.33;2.30;;;27.50;53.40;;;27.84;37.96;98390.25;5047160;27;114278;-71
2022/08/04 02:38:54;;;;;;;4.43;2.53;;;27.50;53.50;;;27.79;38.30;98393.59;5049416;27;114475;-71
2022/08/04 02:41:25;;;;;;;2.97;1.80;;;27.40;53.50;;;27.77;38.13;98391.97;5038554;27;124305;-71
2022/08/04 02:43:58;;;;;;;4.47;2.87;;;27.40;53.60;;;27.76;38.28;98383.91;5032858;27;123827;-70
2022/08/04 02:46:25;;;;;;;4.00;2.93;;;27.40;53.70;;;27.74;38.28;98380.69;5042954;27;114983;-71
2022/08/04 02:48:53;;;;;;;3.83;2.40;;;27.40;53.80;;;27.74;38.75;98386.38;5037299;27;112766;-71
2022/08/04 02:51:29;;;;;;;4.03;2.37;;;27.30;53.90;;;27.71;38.62;98379.53;5040227;27;124134;-71
2022/08/04 02:53:58;;;;;;;5.93;2.57;;;27.40;54.10;;;27.69;38.33;98379.16;5048355;27;123715;-71
2022/08/04 02:56:29;;;;;;;7.37;2.70;;;27.30;54.10;;;27.67;38.90;98387.34;5046738;27;115472;-71
2022/08/04 02:59:03;;;;;;;5.53;2.70;;;27.30;54.20;;;27.65;38.76;98384.13;5047345;27;115043;-71
2022/08/04 03:01:30;;;;;;;4.40;2.60;;;27.30;54.40;;;27.63;38.68;98383.78;5039387;27;123995;-70
2022/08/04 03:04:35;;;;;;;3.80;2.30;;;27.30;54.40;;;27.59;38.80;98385.88;5046416;27;123195;-71
2022/08/04 03:07:22;;;;;;;5.90;2.63;;;27.30;54.50;;;27.57;39.07;98382.69;5046056;27;114240;-71
2022/08/04 03:10:31;;;;;;;3.40;2.10;;;27.20;54.50;;;27.53;38.70;98376.28;5041320;27;113996;-71
2022/08/04 03:13:35;;;;;;;5.53;2.63;;;27.20;54.60;;;27.49;38.91;98381.25;5045852;27;123909;-71
2022/08/04 03:16:41;;;;;;;2.50;1.90;;;27.10;54.60;;;27.44;38.73;98382.53;5044623;27;123260;-71
2022/08/04 03:19:23;;;;;;;3.67;2.80;;;27.10;54.60;;;27.44;39.12;98382.53;5044288;27;114328;-71
2022/08/04 03:22:17;;;;;;;3.07;2.40;;;27.10;54.60;;;27.40;38.97;98384.63;5043703;27;114022;-71
2022/08/04 03:24:59;;;;;;;5.13;2.10;;;27.00;54.70;;;27.39;39.09;98382.25;5047254;27;123748;-71
2022/08/04 03:28:21;;;;;;;3.40;2.40;;;27.00;54.90;;;27.35;39.49;98387.19;5029776;27;124727;-69
2022/08/04 03:31:26;;;;;;;4.83;2.07;;;27.00;55.00;;;27.34;39.16;98391.28;5043544;27;113389;-72
2022/08/04 03:34:50;;;;;;;3.03;2.30;;;27.00;55.00;;;27.29;39.20;98390.53;5035508;27;113052;-72
2022/08/04 03:37:59;;;;;;;8.33;2.27;;;26.90;55.00;;;27.25;38.99;98392.66;5027833;27;124862;-72
2022/08/04 03:41:09;;;;;;;4.43;2.53;;;27.70;55.70;;;27.26;39.07;98396.28;5036476;27;125043;-71
2022/08/04 03:43:57;;;;;;;2.10;1.90;;;26.90;55.30;;;27.24;39.65;98398.75;4998909;27;114315;-70
2022/08/04 03:46:45;;;;;;;4.87;2.83;;;26.90;55.40;;;27.22;39.30;98395.56;5048865;27;113909;-70
2022/08/04 03:49:39;;;;;;;3.30;1.87;;;26.90;55.40;;;27.19;39.26;98402.91;5041339;27;125259;-71
2022/08/04 03:55:44;;;;;;;3.17;2.20;;;26.80;55.50;;;27.11;39.63;98392.91;5043362;27;116290;-70
2022/08/04 03:58:48;;;;;;;3.53;2.37;;;26.80;55.80;;;27.10;39.70;98402.63;5048447;27;115376;-70
2022/08/04 04:01:30;;;;;;;4.20;2.47;;;26.70;55.80;;;27.07;39.79;98403.50;5032525;27;123948;-71
2022/08/04 04:04:15;;;;;;;3.50;1.90;;;26.70;56.00;;;27.05;39.81;98392.59;5045511;27;124068;-71
2022/08/04 04:07:09;;;;;;;2.40;1.90;;;26.70;56.00;;;27.00;39.90;98395.13;5035551;27;114006;-71
2022/08/04 04:10:03;;;;;;;4.10;2.63;;;26.60;56.10;;;27.00;40.19;98397.94;5036910;27;113822;-71
2022/08/04 04:13:20;;;;;;;4.90;2.10;;;26.60;56.30;;;26.97;39.85;98393.16;5037817;27;124136;-71
2022/08/04 04:15:56;;;;;;;3.30;2.27;;;26.60;56.50;;;26.97;40.40;98396.78;5013525;27;123353;-71
2022/08/04 04:18:58;;;;;;;3.40;2.90;;;26.60;56.50;;;26.95;40.45;98393.59;5044506;27;113216;-71
2022/08/04 04:21:36;;;;;;;5.33;2.47;;;26.50;56.60;;;26.97;40.54;98396.00;5030157;27;114078;-71
2022/08/04 04:24:44;;;;;;;7.00;2.33;;;26.50;56.60;;;26.94;40.42;98394.81;5027758;27;124421;-71
2022/08/04 04:27:22;;;;;;;5.80;2.67;;;26.60;56.80;;;26.98;40.37;98395.56;5025958;27;122906;-71
2022/08/04 04:30:08;;;;;;;3.27;1.73;;;26.50;57.40;;;27.00;40.47;98395.13;5029936;27;114506;-70
2022/08/04 04:33:37;;;;;;;5.47;2.60;;;26.50;56.80;;;26.98;40.32;98391.94;5026267;27;113731;-70
2022/08/04 04:36:51;;;;;;;4.60;2.17;;;26.50;56.70;;;26.97;39.87;98396.00;5029174;27;124329;-71
2022/08/04 04:39:54;;;;;;;3.20;2.13;;;26.60;56.80;;;26.97;40.46;98393.16;5044353;27;122058;-72
2022/08/04 04:42:53;;;;;;;4.40;2.70;;;26.50;56.80;;;26.96;40.18;98398.03;5031572;27;114748;-72
2022/08/04 04:45:59;;;;;;;5.63;3.13;;;26.50;56.60;;;26.95;40.19;98401.28;5031436;27;114745;-72
2022/08/04 04:48:52;;;;;;;3.53;2.27;;;26.50;56.80;;;26.94;39.93;98402.53;5032662;27;124439;-72
2022/08/04 04:51:43;;;;;;;3.93;2.37;;;26.50;56.90;;;26.96;39.97;98402.91;5026674;27;123961;-72
2022/08/04 04:54:32;;;;;;;11.77;2.53;;;26.50;56.90;;;26.96;39.94;98411.41;5030804;27;115010;-72
2022/08/04 04:57:20;;;;;;;3.83;2.70;;;26.50;56.80;;;26.96;40.39;98400.88;5038670;27;115301;-72
2022/08/04 04:59:57;;;;;;;7.03;3.40;;;26.50;56.90;;;26.98;40.16;98414.63;5038301;27;124071;-72
2022/08/04 05:02:51;;;;;;;6.73;2.73;;;26.50;57.00;;;26.98;40.08;98411.78;5036863;27;124048;-72
2022/08/04 05:05:33;;;;;;;5.57;2.27;;;26.50;57.30;;;26.99;40.75;98410.53;5047825;27;113608;-72
2022/08/04 05:08:27;;;;;;;5.73;2.90;;;26.50;57.30;;;26.98;40.43;98411.78;5035799;27;113344;-72
2022/08/04 05:11:20;;;;;;;4.57;3.10;;;26.50;57.50;;;27.00;40.90;98412.13;5033141;27;123975;-70
2022/08/04 05:14:27;;;;;;;4.23;2.60;;;26.50;57.60;;;27.02;40.65;98412.50;5034285;27;123876;-70
2022/08/04 05:17:08;;;;;;;5.80;2.83;;;26.50;57.80;;;27.07;40.53;98415.63;5027389;27;114258;-70
2022/08/04 05:19:49;;;;;;;5.40;2.57;;;26.60;57.80;;;27.13;40.35;98412.31;5045616;27;113966;-71
2022/08/04 05:22:27;;;;;;;8.20;2.60;;;26.60;57.70;;;27.16;40.29;98409.41;5044933;27;124066;-71
2022/08/04 05:25:07;;;;;;;6.73;2.37;;;26.60;57.60;;;27.19;40.56;98408.59;5046929;27;124231;-71
2022/08/04 05:27:45;;;;;;;6.73;3.00;;;26.70;57.60;;;27.24;40.30;98410.91;5045274;27;114318;-71
2022/08/04 05:30:12;;;;;;;5.93;3.20;;;26.70;57.60;;;27.29;40.17;98406.75;5038006;27;114114;-71
2022/08/04 05:33:02;;;;;;;8.70;3.37;;;27.50;58.00;;;27.32;39.84;98405.88;5027638;27;124720;-72
2022/08/04 05:35:51;;;;;;;9.20;3.17;;;26.80;57.40;;;27.36;39.45;98408.66;5039415;27;123946;-71
2022/08/04 05:38:21;;;;;;;6.10;3.00;;;26.80;57.10;;;27.38;39.68;98409.84;5025702;27;114513;-72
2022/08/04 05:40:49;;;;;;;3.83;2.40;;;26.80;57.00;;;27.42;39.40;98413.38;5036690;27;113526;-71
2022/08/04 05:43:17;;;;;;;7.23;2.90;;;26.90;56.90;;;27.45;39.24;98408.88;5039805;27;124331;-71
2022/08/04 05:45:47;;;;;;;4.40;2.40;;;26.90;56.80;;;27.46;39.14;98410.50;5037861;27;123830;-72
2022/08/04 05:48:14;;;;;;;5.90;2.50;;;26.90;56.70;;;27.51;39.09;98419.31;5034111;27;115590;-71
2022/08/04 05:50:41;;;;;;;2.40;2.03;;;26.90;56.70;;;27.54;39.35;98417.63;5041218;27;114986;-72
2022/08/04 05:53:10;;;;;;;4.47;2.37;;;27.00;56.50;;;27.57;39.14;98413.91;5038803;27;126386;-72
2022/08/04 05:55:37;;;;;;;3.30;2.50;;;27.00;56.50;;;27.61;39.14;98408.16;5042206;27;124082;-72
2022/08/04 05:58:05;;;;;;;4.33;2.23;;;27.00;56.30;;;27.66;38.79;98411.28;5042550;27;114442;-72
2022/08/04 06:00:34;;;;;;;3.73;2.43;;;27.00;56.20;;;27.70;38.93;98414.84;5037454;27;113856;-72
2022/08/04 06:03:01;;;;;;;3.80;2.77;;;27.10;56.30;;;27.77;39.00;98409.00;5012169;28;123689;-72
2022/08/04 06:05:28;;;;;;;8.10;2.30;;;27.20;56.40;;;27.85;38.57;98411.72;5030541;27;124020;-72
2022/08/04 06:07:55;;;;;;;2.40;2.03;;;27.20;56.40;;;27.90;38.28;98414.06;5038306;27;113580;-72
2022/08/04 06:10:23;;;;;;;2.70;1.90;;;27.30;56.00;;;27.94;38.16;98409.91;5042730;27;114176;-72
2022/08/04 06:12:54;;;;;;;3.07;1.87;;;27.30;55.80;;;27.98;38.46;98416.28;5034033;27;123403;-72
2022/08/04 06:15:25;;;;;;;3.60;2.43;;;27.40;55.90;;;28.06;38.32;98414.09;5035268;27;123759;-72
2022/08/04 06:18:01;;;;;;;3.03;2.50;;;27.40;55.80;;;28.14;38.27;98409.06;5038068;27;114032;-71
2022/08/04 06:20:33;;;;;;;5.40;2.50;;;27.50;55.90;;;28.24;38.24;98412.88;5039652;27;113122;-71
2022/08/04 06:23:05;;;;;;;3.67;2.63;;;27.50;55.80;;;28.33;38.26;98410.25;5041011;27;124324;-71
2022/08/04 06:25:37;;;;;;;3.47;2.80;;;27.70;55.90;;;28.42;38.03;98401.88;5036533;27;122986;-71
2022/08/04 06:28:07;;;;;;;4.80;2.63;;;27.70;55.70;;;28.49;37.74;98401.75;5031799;27;114655;-72
2022/08/04 06:30:35;;;;;;;4.60;2.90;;;27.80;55.50;;;28.60;37.77;98407.97;5039904;27;114452;-72
2022/08/04 06:33:22;;;;;;;3.43;2.53;;;27.90;55.40;;;28.67;37.61;98409.03;5040678;27;124254;-73
2022/08/04 06:35:54;;;;;;;6.27;2.87;;;28.00;55.30;;;28.76;37.40;98403.53;5042942;27;124391;-71
2022/08/04 06:38:26;;;;;;;3.83;2.60;;;28.00;55.10;;;28.80;37.19;98404.22;5037840;27;115311;-71
2022/08/04 06:40:56;;;;;;;5.17;2.13;;;28.10;54.80;;;28.87;37.05;98406.88;5040451;27;115152;-72
2022/08/04 06:43:25;;;;;;;6.40;2.47;;;28.20;54.80;;;28.94;37.04;98412.41;5046576;27;123126;-72
2022/08/04 06:45:53;;;;;;;5.90;2.27;;;28.30;54.70;;;28.99;37.24;98409.03;5037489;27;124283;-72
2022/08/04 06:48:21;;;;;;;3.90;2.60;;;28.30;54.50;;;29.02;36.84;98405.28;5034352;27;114459;-71
2022/08/04 06:50:49;;;;;;;5.07;2.43;;;28.30;54.40;;;29.04;36.83;98417.03;5029459;27;114084;-71
2022/08/04 06:53:17;;;;;;;8.47;2.70;;;28.40;54.40;;;29.06;36.93;98414.53;5040824;27;124018;-72
2022/08/04 06:55:46;;;;;;;2.50;2.30;;;28.40;54.50;;;29.09;36.81;98407.16;5041723;27;124186;-72
2022/08/04 06:58:15;;;;;;;4.47;2.50;;;28.40;54.60;;;29.12;36.89;98414.00;5038509;27;114126;-72
2022/08/04 07:00:45;;;;;;;6.23;2.67;;;28.40;54.60;;;29.15;36.96;98413.91;5032499;27;113939;-73
2022/08/04 07:03:13;;;;;;;2.33;2.10;;;28.50;54.70;;;29.21;36.69;98417.00;5028693;27;123175;-71
2022/08/04 07:05:40;;;;;;;4.20;2.50;;;28.50;54.70;;;29.26;37.03;98416.47;5051471;27;123954;-72
2022/08/04 07:08:10;;;;;;;4.67;2.73;;;28.50;54.70;;;29.34;36.80;98414.19;5006214;28;97074;-72
2022/08/04 07:10:38;;;;;;;8.70;2.57;;;28.60;54.90;;;29.40;37.33;98413.22;5043871;27;113316;-72
2022/08/04 07:13:06;;;;;;;5.10;2.93;;;28.60;54.70;;;29.45;36.67;98418.34;5034351;27;124324;-71
2022/08/04 07:15:34;;;;;;;6.60;2.03;;;28.70;55.30;;;29.52;36.54;98418.13;5039582;27;123610;-71
2022/08/04 07:18:03;;;;;;;4.27;2.80;;;28.80;54.60;;;29.60;36.87;98412.25;5011592;27;114279;-73
2022/08/04 07:20:31;;;;;;;4.07;2.60;;;28.80;54.50;;;29.69;36.52;98418.13;5033333;27;113074;-73
2022/08/04 07:23:00;;;;;;;2.83;2.10;;;28.90;54.40;;;29.77;36.40;98410.97;5034647;27;125277;-72
2022/08/04 07:25:27;;;;;;;5.17;2.53;;;29.00;54.20;;;29.85;36.19;98408.69;5036081;27;124100;-71
2022/08/04 07:27:54;;;;;;;3.53;2.30;;;29.10;54.90;;;29.95;36.03;98407.56;5039012;27;115142;-72
2022/08/04 07:30:22;;;;;;;3.93;2.07;;;29.20;53.90;;;30.04;35.39;98404.84;5038102;27;114911;-73
2022/08/04 07:32:48;;;;;;;3.63;1.90;;;29.30;53.50;;;30.12;35.29;98399.75;5039275;27;124387;-72
2022/08/04 07:35:16;;;;;;;8.03;3.03;;;29.40;53.30;;;30.22;35.32;98397.78;5037982;27;123735;-72
2022/08/04 07:37:43;;;;;;;4.30;2.20;;;29.50;53.00;;;30.26;34.63;98399.31;5042450;27;114895;-73
2022/08/04 07:40:10;;;;;;;6.27;2.70;;;29.50;52.40;;;30.31;34.62;98400.81;5033014;27;113327;-71
2022/08/04 07:42:36;;;;;;;3.67;2.60;;;29.50;52.30;;;30.35;34.72;98413.66;5033754;27;124389;-71
2022/08/04 07:45:03;;;;;;;3.10;2.40;;;29.60;52.30;;;30.41;35.13;98401.69;5035221;27;123875;-74
2022/08/04 07:47:30;;;;;;;3.40;2.30;;;29.70;52.40;;;30.48;34.49;98402.25;5043320;27;113883;-71
2022/08/04 07:49:57;;;;;;;2.53;2.00;;;29.70;52.10;;;30.56;34.66;98394.28;5029354;27;114049;-72
2022/08/04 07:52:25;;;;;;;3.00;2.60;;;29.90;52.10;;;30.62;34.44;98400.97;5037675;27;123629;-74
2022/08/04 07:54:53;;;;;;;5.20;2.70;;;29.90;52.00;;;30.68;34.97;98396.31;5042320;27;123790;-74
2022/08/04 07:57:20;;;;;;;3.70;2.23;;;29.90;52.10;;;30.74;34.38;98396.53;5033959;27;114329;-75
2022/08/04 07:59:47;;;;;;;6.67;2.27;;;30.00;52.20;;;30.81;34.34;98393.44;5035939;27;114434;-73
2022/08/04 08:02:15;;;;;;;3.27;2.30;;;30.10;52.20;;;30.88;34.60;98395.28;5036275;27;124052;-74
2022/08/04 08:04:43;;;;;;;4.60;2.40;;;30.10;52.20;;;30.93;34.68;98386.13;5032346;27;123176;-72
2022/08/04 08:07:09;;;;;;;8.90;2.80;;;30.20;52.30;;;30.97;34.61;98390.44;5031798;27;113902;-73
2022/08/04 08:09:37;;;;;;;3.30;2.30;;;30.20;52.20;;;31.02;34.95;98387.00;5030193;27;113927;-74
2022/08/04 08:12:06;;;;;;;6.83;2.40;;;30.30;52.30;;;31.08;34.73;98375.78;5034134;27;124053;-74
2022/08/04 08:14:34;;;;;;;2.70;2.30;;;30.40;52.30;;;31.13;34.78;98380.91;5030761;27;124367;-72
2022/08/04 08:17:02;;;;;;;4.70;3.17;;;30.40;52.10;;;31.19;34.25;98373.38;5026998;27;114064;-73
2022/08/04 08:19:33;;;;;;;3.23;2.80;;;30.50;52.10;;;31.24;34.68;98380.53;5014334;27;114091;-73
2022/08/04 08:22:00;;;;;;;4.67;2.90;;;30.50;51.90;;;31.31;34.10;98380.28;5029002;27;123436;-73
2022/08/04 08:24:29;;;;;;;3.07;2.50;;;30.60;51.80;;;31.35;33.96;98378.06;5028241;27;122768;-73
2022/08/04 08:26:57;;;;;;;4.40;2.57;;;30.60;51.60;;;31.41;33.95;98379.13;5035489;27;114430;-73
2022/08/04 08:29:25;;;;;;;5.23;2.50;;;30.70;51.30;;;31.48;33.75;98372.34;5031099;27;114540;-73
2022/08/04 08:31:52;;;;;;;5.57;2.70;;;30.80;50.80;;;31.51;32.77;98371.41;5026441;27;124506;-73
2022/08/04 08:34:19;;;;;;;6.50;2.87;;;30.80;50.10;;;31.59;32.38;98378.44;5038595;27;123656;-72
2022/08/04 08:36:58;;;;;;;4.30;2.57;;;30.90;49.80;;;31.63;32.62;98372.59;5030681;27;114105;-72
2022/08/04 08:39:34;;;;;;;6.63;2.77;;;31.00;49.40;;;31.69;31.79;98371.53;5041054;27;113415;-73
2022/08/04 08:42:41;;;;;;;5.87;2.13;;;31.00;48.90;;;31.73;31.84;98370.59;5028505;27;123282;-73
2022/08/04 08:45:26;;;;;;;3.37;2.50;;;31.10;48.40;;;31.81;31.92;98366.19;5029821;27;123817;-72
2022/08/04 08:48:18;;;;;;;3.90;2.00;;;31.10;47.90;;;31.87;31.06;98367.19;5036542;27;114004;-74
2022/08/04 08:50:59;;;;;;;3.40;2.27;;;31.20;47.40;;;31.95;31.15;98371.38;5030596;27;114210;-74
2022/08/04 08:54:00;;;;;;;3.93;2.20;;;31.30;47.00;;;31.98;31.01;98381.09;5035729;27;123739;-74
2022/08/04 08:56:53;;;;;;;2.33;1.93;;;31.40;46.90;;;32.03;30.92;98378.41;5037629;27;123721;-73
2022/08/04 09:00:01;;;;;;;4.67;1.90;;;31.40;47.10;;;32.08;31.06;98380.66;5041574;27;114043;-71
2022/08/04 09:03:14;;;;;;;12.50;3.80;;;31.50;47.10;;;32.16;31.48;98380.34;5010542;28;113767;-73
2022/08/04 09:06:09;;;;;;;3.50;2.47;;;31.50;47.00;;;32.21;31.15;98382.59;5007278;28;124074;-72
2022/08/04 09:09:06;;;;;;;3.43;2.30;;;31.60;46.70;;;32.25;30.56;98374.69;5041626;27;124438;-74
2022/08/04 09:11:47;;;;;;;3.30;2.30;;;31.60;46.70;;;32.31;30.78;98369.94;5037934;27;115312;-72
2022/08/04 09:14:23;;;;;;;2.43;2.17;;;31.70;46.80;;;32.37;31.12;98365.19;5040842;27;114629;-74
2022/08/04 09:17:04;;;;;;;8.17;2.50;;;31.80;46.70;;;32.45;31.01;98372.22;5037327;27;124662;-72
2022/08/04 09:20:05;;;;;;;7.63;2.10;;;31.80;46.60;;;32.51;30.42;98373.22;5030471;27;123496;-75
2022/08/04 09:23:03;;;;;;;4.40;1.93;;;31.90;46.50;;;32.58;30.68;98377.06;5046459;27;114453;-74
2022/08/04 09:25:47;;;;;;;3.07;2.30;;;32.00;46.50;;;32.65;30.48;98365.31;5043917;27;114170;-73
2022/08/04 09:28:23;;;;;;;3.40;2.20;;;32.00;46.40;;;32.74;30.99;98373.91;5046735;27;124378;-72
2022/08/04 09:31:02;;;;;;;2.87;2.10;;;32.10;46.50;;;32.82;30.48;98369.47;5034105;27;124151;-72
2022/08/04 09:33:48;;;;;;;9.93;2.43;;;32.20;46.40;;;32.86;30.30;98375.03;5033056;27;114603;-72
2022/08/04 09:36:29;;;;;;;4.50;2.07;;;32.30;45.90;;;32.90;30.00;98370.75;5045695;27;113881;-73
2022/08/04 09:39:23;;;;;;;4.33;2.87;;;32.30;45.50;;;32.94;29.80;98370.59;5041012;27;123940;-72
2022/08/04 09:42:14;;;;;;;2.60;2.17;;;32.40;45.30;;;32.97;29.69;98369.66;5033968;27;123799;-73
2022/08/04 09:45:18;;;;;;;3.03;2.10;;;32.40;45.00;;;33.02;29.61;98363.34;5029615;27;114030;-73
2022/08/04 09:48:19;;;;;;;3.17;2.43;;;32.50;44.80;;;33.07;29.17;98350.44;5019918;27;113135;-74
2022/08/04 09:50:57;;;;;;;2.57;2.20;;;32.50;44.10;;;33.12;28.65;98358.41;5049727;27;124181;-75
2022/08/04 09:54:00;;;;;;;2.53;2.00;;;32.60;43.60;;;33.15;28.64;98358.22;5039834;27;123914;-73
2022/08/04 09:56:44;;;;;;;5.40;2.40;;;32.60;43.20;;;33.19;28.74;98353.16;5040078;27;114239;-73
2022/08/04 09:59:26;;;;;;;3.27;2.33;;;32.60;43.50;;;33.26;28.88;98348.38;5048691;27;113909;-73
2022/08/04 10:01:58;;;;;;;3.63;1.93;;;32.70;43.60;;;33.30;28.43;98346.94;5041017;27;124096;-73
2022/08/04 10:04:28;;;;;;;4.30;2.30;;;32.70;43.30;;;33.35;28.42;98342.66;5037127;27;124726;-75
2022/08/04 10:07:22;;;;;;;3.67;2.17;;;32.80;43.00;;;33.39;28.10;98337.53;5036711;27;116705;-75
2022/08/04 10:10:14;;;;;;;3.00;2.70;;;32.80;42.90;;;33.41;28.23;98335.78;5033740;27;114892;-73
2022/08/04 10:12:55;;;;;;;2.57;2.17;;;32.90;42.70;;;33.49;28.44;98332.59;5033881;27;124249;-74
2022/08/04 10:15:47;;;;;;;2.80;2.20;;;33.00;43.20;;;33.53;28.33;98336.06;5042921;27;123018;-74
2022/08/04 10:19:06;;;;;;;3.10;2.00;;;33.00;42.90;;;33.57;28.30;98336.75;5032033;27;114112;-73
2022/08/04 10:22:14;;;;;;;2.73;2.50;;;33.10;42.60;;;33.60;27.96;98332.91;5033111;27;114019;-74
2022/08/04 10:25:24;;;;;;;3.13;2.23;;;33.10;42.10;;;33.62;27.28;98328.28;5029936;27;124520;-75
2022/08/04 10:27:59;;;;;;;2.43;2.20;;;33.10;41.00;;;33.70;26.97;98310.78;5033490;27;123769;-73
2022/08/04 10:30:27;;;;;;;2.53;1.63;;;33.20;41.30;;;33.76;27.32;98315.34;5031144;27;114198;-72
2022/08/04 10:33:26;;;;;;;5.13;2.47;;;33.20;41.20;;;33.81;27.11;98316.78;5035412;27;114048;-73
2022/08/04 10:36:00;;;;;;;4.30;2.60;;;33.30;41.00;;;33.88;26.73;98305.78;5030782;27;123912;-72
2022/08/04 10:38:39;;;;;;;3.30;1.90;;;33.30;40.80;;;33.95;26.99;98309.56;5028873;27;124205;-73
2022/08/04 10:41:24;;;;;;;3.00;2.70;;;33.50;40.70;;;34.00;26.73;98298.22;5032293;27;114567;-72
2022/08/04 10:44:22;;;;;;;3.80;2.37;;;33.50;40.50;;;34.05;26.30;98300.47;5028294;27;114049;-75
2022/08/04 10:47:04;;;;;;;2.67;2.33;;;33.50;40.10;;;34.13;26.47;98289.44;5039319;27;124247;-73
2022/08/04 10:49:41;;;;;;;4.17;2.80;;;33.60;39.90;;;34.21;25.89;98296.41;5036130;27;124477;-72
2022/08/04 10:52:28;;;;;;;3.90;2.17;;;33.70;39.80;;;34.29;26.08;98294.78;5032723;27;114078;-73
2022/08/04 10:55:15;;;;;;;2.50;2.30;;;33.80;39.80;;;34.35;25.70;98285.50;5045859;27;113939;-72
2022/08/04 10:57:50;;;;;;;3.07;2.63;;;33.90;39.50;;;34.43;25.51;98286.72;5031006;27;123936;-74
2022/08/04 11:00:26;;;;;;;3.80;2.63;;;33.90;39.00;;;34.50;25.11;98294.97;5036537;27;124185;-75
2022/08/04 11:03:27;;;;;;;2.60;2.30;;;34.00;38.70;;;34.60;25.34;98289.97;5047295;27;115349;-75
2022/08/04 11:05:57;;;;;;;2.90;2.37;;;34.10;38.60;;;34.71;25.20;98285.28;5041248;27;116080;-73
2022/08/04 11:08:36;;;;;;;2.90;2.50;;;34.20;38.50;;;34.81;24.80;98293.81;5039460;27;123963;-74
2022/08/04 11:11:43;;;;;;;2.97;2.00;;;34.30;38.30;;;34.89;25.10;98283.53;5032852;27;124772;-79
2022/08/04 11:14:26;;;;;;;2.37;1.97;;;34.40;37.60;;;34.98;24.50;98286.31;5035325;27;114494;-73
2022/08/04 11:17:18;;;;;;;2.50;2.20;;;34.50;37.20;;;35.09;24.88;98277.97;5035859;27;113592;-73